sensor_id;sensor_type;location;lat;lon;timestamp;pressure;altitude;pressure_sealevel;temperature;humidity
45864;BME280;31579;52.354;16.974;2022-09-01T00:00:57;169.5;;;-146.1;100.0
45864;BME280;31579;52.354;16.974;2022-09-01T00:02:00;228.6;;;-146.1;100.0
45864;BME280;31579;52.354;16.974;2022-09-01T00:03:02;280.9;;;-146.1;100.0
45864;BME280;31579;52.354;16.974;2022-09-01T00:04:06;201.7;;;-146.1;100.0
45864;BME280;31579;52.354;16.974;2022-09-01T00:05:10;198.9;;;-146.1;100.0
45864;BME280;31579;52.354;16.974;2022-09-01T00:06:14;200.6;;;-146.1;100.0
45864;BME280;31579;52.354;16.974;2022-09-01T00:07:16;285.1;;;-146.1;100.0
45864;BME280;31579;52.354;16.974;2022-09-01T00:08:21;214.2;;;-146.1;100.0
45864;BME280;31579;52.354;16.974;2022-09-01T00:09:25;209.3;;;-146.1;100.0
45864;BME280;31579;52.354;16.974;2022-09-01T00:10:29;207.3;;;-146.1;100.0
45864;BME280;31579;52.354;16.974;2022-09-01T00:11:33;203.6;;;-146.1;100.0
45864;BME280;31579;52.354;16.974;2022-09-01T00:12:37;208.9;;;-146.1;100.0
45864;BME280;31579;52.354;16.974;2022-09-01T00:13:41;214.2;;;-146.1;100.0
45864;BME280;31579;52.354;16.974;2022-09-01T00:14:45;219.6;;;-146.1;100.0
45864;BME280;31579;52.354;16.974;2022-09-01T00:15:49;224.1;;;-146.1;100.0
45864;BME280;31579;52.354;16.974;2022-09-01T00:17:08;146.3;;;-146.1;100.0
45864;BME280;31579;52.354;16.974;2022-09-01T00:18:11;213.6;;;-146.1;100.0
45864;BME280;31579;52.354;16.974;2022-09-01T00:19:15;226.2;;;-146.1;100.0
45864;BME280;31579;52.354;16.974;2022-09-01T00:20:19;234.1;;;-146.1;100.0
45864;BME280;31579;52.354;16.974;2022-09-01T00:21:25;238.4;;;-146.1;100.0
45864;BME280;31579;52.354;16.974;2022-09-01T00:22:27;243.0;;;-146.1;100.0
45864;BME280;31579;52.354;16.974;2022-09-01T00:23:31;243.7;;;-146.1;100.0
45864;BME280;31579;52.354;16.974;2022-09-01T00:24:35;243.5;;;-146.1;100.0
45864;BME280;31579;52.354;16.974;2022-09-01T00:25:39;245.7;;;-146.1;100.0
45864;BME280;31579;52.354;16.974;2022-09-01T00:26:43;251.5;;;-146.1;100.0
45864;BME280;31579;52.354;16.974;2022-09-01T00:27:47;255.1;;;-146.1;100.0
45864;BME280;31579;52.354;16.974;2022-09-01T00:28:52;256.1;;;-146.1;100.0
45864;BME280;31579;52.354;16.974;2022-09-01T00:29:56;257.4;;;-146.1;100.0
45864;BME280;31579;52.354;16.974;2022-09-01T00:31:00;259.1;;;-146.1;100.0
45864;BME280;31579;52.354;16.974;2022-09-01T00:32:03;327.8;;;-146.1;100.0
45864;BME280;31579;52.354;16.974;2022-09-01T00:33:07;273.9;;;-146.1;100.0
45864;BME280;31579;52.354;16.974;2022-09-01T00:34:11;271.8;;;-146.1;100.0
45864;BME280;31579;52.354;16.974;2022-09-01T00:35:16;271.5;;;-146.1;100.0
45864;BME280;31579;52.354;16.974;2022-09-01T00:36:19;274.8;;;-146.1;100.0
45864;BME280;31579;52.354;16.974;2022-09-01T00:37:23;281.5;;;-146.1;100.0
45864;BME280;31579;52.354;16.974;2022-09-01T00:38:27;285.5;;;-146.1;100.0
45864;BME280;31579;52.354;16.974;2022-09-01T00:39:31;287.7;;;-146.1;100.0
45864;BME280;31579;52.354;16.974;2022-09-01T00:40:35;291.8;;;-146.1;100.0
45864;BME280;31579;52.354;16.974;2022-09-01T00:41:39;293.7;;;-146.1;100.0
45864;BME280;31579;52.354;16.974;2022-09-01T00:42:43;296.7;;;-146.1;100.0
45864;BME280;31579;52.354;16.974;2022-09-01T00:44:51;301.6;;;-146.1;100.0
45864;BME280;31579;52.354;16.974;2022-09-01T00:45:55;303.9;;;-146.1;100.0
45864;BME280;31579;52.354;16.974;2022-09-01T00:46:59;306.8;;;-146.1;100.0
45864;BME280;31579;52.354;16.974;2022-09-01T00:47:14;320.5;;;-146.1;100.0
45864;BME280;31579;52.354;16.974;2022-09-01T00:48:18;303.6;;;-146.1;100.0
45864;BME280;31579;52.354;16.974;2022-09-01T00:50:26;312.9;;;-146.1;100.0
45864;BME280;31579;52.354;16.974;2022-09-01T00:51:30;315.7;;;-146.1;100.0
45864;BME280;31579;52.354;16.974;2022-09-01T00:52:35;315.4;;;-146.1;100.0
45864;BME280;31579;52.354;16.974;2022-09-01T00:53:38;319.2;;;-146.1;100.0
45864;BME280;31579;52.354;16.974;2022-09-01T00:54:44;322.8;;;-146.1;100.0
45864;BME280;31579;52.354;16.974;2022-09-01T00:55:46;325.6;;;-146.1;100.0
45864;BME280;31579;52.354;16.974;2022-09-01T00:57:04;283.3;;;-146.1;100.0
45864;BME280;31579;52.354;16.974;2022-09-01T00:58:08;319.3;;;-146.1;100.0
45864;BME280;31579;52.354;16.974;2022-09-01T00:59:12;324.7;;;-146.1;100.0
45864;BME280;31579;52.354;16.974;2022-09-01T01:01:21;329.2;;;-146.1;100.0
45864;BME280;31579;52.354;16.974;2022-09-01T01:02:25;333.2;;;-146.1;100.0
45864;BME280;31579;52.354;16.974;2022-09-01T01:03:30;335.3;;;-146.1;100.0
45864;BME280;31579;52.354;16.974;2022-09-01T01:04:34;334.5;;;-146.1;100.0
45864;BME280;31579;52.354;16.974;2022-09-01T01:05:42;337.3;;;-146.1;100.0
45864;BME280;31579;52.354;16.974;2022-09-01T01:06:42;338.4;;;-146.1;100.0
45864;BME280;31579;52.354;16.974;2022-09-01T01:07:46;338.8;;;-146.1;100.0
45864;BME280;31579;52.354;16.974;2022-09-01T01:08:50;339.8;;;-146.1;100.0
45864;BME280;31579;52.354;16.974;2022-09-01T01:09:54;340.2;;;-146.1;100.0
45864;BME280;31579;52.354;16.974;2022-09-01T01:10:59;341.2;;;-146.1;100.0
45864;BME280;31579;52.354;16.974;2022-09-01T01:12:02;378.9;;;-146.1;100.0
45864;BME280;31579;52.354;16.974;2022-09-01T01:14:07;349.4;;;-146.1;100.0
45864;BME280;31579;52.354;16.974;2022-09-01T01:15:11;347.9;;;-146.1;100.0
45864;BME280;31579;52.354;16.974;2022-09-01T01:16:15;347.5;;;-146.1;100.0
45864;BME280;31579;52.354;16.974;2022-09-01T01:17:20;348.1;;;-146.1;100.0
45864;BME280;31579;52.354;16.974;2022-09-01T01:18:23;347.9;;;-146.1;100.0
45864;BME280;31579;52.354;16.974;2022-09-01T01:20:31;349.4;;;-146.1;100.0
45864;BME280;31579;52.354;16.974;2022-09-01T01:21:37;350.5;;;-146.1;100.0
45864;BME280;31579;52.354;16.974;2022-09-01T01:22:52;351.9;;;-146.1;100.0
45864;BME280;31579;52.354;16.974;2022-09-01T01:23:47;354.3;;;-146.1;100.0
45864;BME280;31579;52.354;16.974;2022-09-01T01:24:47;356.2;;;-146.1;100.0
45864;BME280;31579;52.354;16.974;2022-09-01T01:25:53;357.6;;;-146.1;100.0
45864;BME280;31579;52.354;16.974;2022-09-01T01:26:55;359.5;;;-146.1;100.0
45864;BME280;31579;52.354;16.974;2022-09-01T01:29:10;239.6;;;-146.1;100.0
45864;BME280;31579;52.354;16.974;2022-09-01T01:30:14;351.5;;;-146.1;100.0
45864;BME280;31579;52.354;16.974;2022-09-01T01:31:18;358.9;;;-146.1;100.0
45864;BME280;31579;52.354;16.974;2022-09-01T01:32:22;362.8;;;-146.1;100.0
45864;BME280;31579;52.354;16.974;2022-09-01T01:33:29;365.0;;;-146.1;100.0
45864;BME280;31579;52.354;16.974;2022-09-01T01:34:30;365.9;;;-146.1;100.0
45864;BME280;31579;52.354;16.974;2022-09-01T01:35:34;367.1;;;-146.1;100.0
45864;BME280;31579;52.354;16.974;2022-09-01T01:36:38;369.0;;;-146.1;100.0
45864;BME280;31579;52.354;16.974;2022-09-01T01:37:43;370.3;;;-146.1;100.0
45864;BME280;31579;52.354;16.974;2022-09-01T01:38:47;372.3;;;-146.1;100.0
45864;BME280;31579;52.354;16.974;2022-09-01T01:39:50;373.5;;;-146.1;100.0
45864;BME280;31579;52.354;16.974;2022-09-01T01:40:54;373.9;;;-146.1;100.0
45864;BME280;31579;52.354;16.974;2022-09-01T01:41:59;376.0;;;-146.1;100.0
45864;BME280;31579;52.354;16.974;2022-09-01T01:43:03;378.1;;;-146.1;100.0
45864;BME280;31579;52.354;16.974;2022-09-01T01:44:07;380.1;;;-146.1;100.0
45864;BME280;31579;52.354;16.974;2022-09-01T01:45:12;380.8;;;-146.1;100.0
45864;BME280;31579;52.354;16.974;2022-09-01T01:46:15;381.9;;;-146.1;100.0
45864;BME280;31579;52.354;16.974;2022-09-01T01:47:19;383.0;;;-146.1;100.0
45864;BME280;31579;52.354;16.974;2022-09-01T01:48:23;383.1;;;-146.1;100.0
45864;BME280;31579;52.354;16.974;2022-09-01T01:49:27;383.8;;;-146.1;100.0
45864;BME280;31579;52.354;16.974;2022-09-01T01:50:31;384.2;;;-146.1;100.0
45864;BME280;31579;52.354;16.974;2022-09-01T01:51:35;384.2;;;-146.1;100.0
45864;BME280;31579;52.354;16.974;2022-09-01T01:52:39;384.3;;;-146.1;100.0
45864;BME280;31579;52.354;16.974;2022-09-01T01:53:43;386.1;;;-146.1;100.0
45864;BME280;31579;52.354;16.974;2022-09-01T01:54:47;388.9;;;-146.1;100.0
45864;BME280;31579;52.354;16.974;2022-09-01T01:55:51;388.9;;;-146.1;100.0
45864;BME280;31579;52.354;16.974;2022-09-01T01:56:55;391.4;;;-146.1;100.0
45864;BME280;31579;52.354;16.974;2022-09-01T01:57:59;394.3;;;-146.1;100.0
45864;BME280;31579;52.354;16.974;2022-09-01T01:59:03;396.5;;;-146.1;100.0
45864;BME280;31579;52.354;16.974;2022-09-01T02:00:07;397.5;;;-146.1;100.0
45864;BME280;31579;52.354;16.974;2022-09-01T02:01:11;399.3;;;-146.1;100.0
45864;BME280;31579;52.354;16.974;2022-09-01T02:02:15;400.5;;;-146.1;100.0
45864;BME280;31579;52.354;16.974;2022-09-01T02:03:20;402.1;;;-146.1;100.0
45864;BME280;31579;52.354;16.974;2022-09-01T02:04:23;402.3;;;-146.1;100.0
45864;BME280;31579;52.354;16.974;2022-09-01T02:05:29;401.8;;;-146.1;100.0
45864;BME280;31579;52.354;16.974;2022-09-01T02:06:32;403.0;;;-146.1;100.0
45864;BME280;31579;52.354;16.974;2022-09-01T02:07:55;342.6;;;-146.1;100.0
45864;BME280;31579;52.354;16.974;2022-09-01T02:08:55;393.3;;;-146.1;100.0
45864;BME280;31579;52.354;16.974;2022-09-01T02:09:59;390.4;;;-146.1;100.0
45864;BME280;31579;52.354;16.974;2022-09-01T02:11:12;325.9;;;-146.1;100.0
45864;BME280;31579;52.354;16.974;2022-09-01T02:12:15;385.3;;;-146.1;100.0
45864;BME280;31579;52.354;16.974;2022-09-01T02:13:20;393.0;;;-146.1;100.0
45864;BME280;31579;52.354;16.974;2022-09-01T02:14:23;395.8;;;-146.1;100.0
45864;BME280;31579;52.354;16.974;2022-09-01T02:15:28;397.8;;;-146.1;100.0
45864;BME280;31579;52.354;16.974;2022-09-01T02:16:32;399.6;;;-146.1;100.0
45864;BME280;31579;52.354;16.974;2022-09-01T02:17:35;400.7;;;-146.1;100.0
45864;BME280;31579;52.354;16.974;2022-09-01T02:18:41;400.7;;;-146.1;100.0
45864;BME280;31579;52.354;16.974;2022-09-01T02:19:43;400.7;;;-146.1;100.0
45864;BME280;31579;52.354;16.974;2022-09-01T02:20:48;400.5;;;-146.1;100.0
45864;BME280;31579;52.354;16.974;2022-09-01T02:21:51;400.4;;;-146.1;100.0
45864;BME280;31579;52.354;16.974;2022-09-01T02:22:55;400.5;;;-146.1;100.0
45864;BME280;31579;52.354;16.974;2022-09-01T02:24:01;400.0;;;-146.1;100.0
45864;BME280;31579;52.354;16.974;2022-09-01T02:25:04;399.0;;;-146.1;100.0
45864;BME280;31579;52.354;16.974;2022-09-01T02:26:07;418.6;;;-146.1;100.0
45864;BME280;31579;52.354;16.974;2022-09-01T02:27:11;402.5;;;-146.1;100.0
45864;BME280;31579;52.354;16.974;2022-09-01T02:28:16;400.9;;;-146.1;100.0
45864;BME280;31579;52.354;16.974;2022-09-01T02:29:22;400.3;;;-146.1;100.0
45864;BME280;31579;52.354;16.974;2022-09-01T02:30:23;400.7;;;-146.1;100.0
45864;BME280;31579;52.354;16.974;2022-09-01T02:31:26;401.7;;;-146.1;100.0
45864;BME280;31579;52.354;16.974;2022-09-01T02:32:30;402.1;;;-146.1;100.0
45864;BME280;31579;52.354;16.974;2022-09-01T02:33:35;403.5;;;-146.1;100.0
45864;BME280;31579;52.354;16.974;2022-09-01T02:34:38;403.9;;;-146.1;100.0
45864;BME280;31579;52.354;16.974;2022-09-01T02:35:43;405.0;;;-146.1;100.0
45864;BME280;31579;52.354;16.974;2022-09-01T02:36:47;406.0;;;-146.1;100.0
45864;BME280;31579;52.354;16.974;2022-09-01T02:37:50;407.3;;;-146.1;100.0
45864;BME280;31579;52.354;16.974;2022-09-01T02:38:54;408.7;;;-146.1;100.0
45864;BME280;31579;52.354;16.974;2022-09-01T02:39:58;408.9;;;-146.1;100.0
45864;BME280;31579;52.354;16.974;2022-09-01T02:41:01;428.4;;;-146.1;100.0
45864;BME280;31579;52.354;16.974;2022-09-01T02:42:04;424.4;;;-146.1;100.0
45864;BME280;31579;52.354;16.974;2022-09-01T02:43:05;432.4;;;-146.1;100.0
45864;BME280;31579;52.354;16.974;2022-09-01T02:44:09;427.7;;;-146.1;100.0
45864;BME280;31579;52.354;16.974;2022-09-01T02:45:13;418.1;;;-146.1;100.0
45864;BME280;31579;52.354;16.974;2022-09-01T02:46:16;416.2;;;-146.1;100.0
45864;BME280;31579;52.354;16.974;2022-09-01T02:47:21;415.9;;;-146.1;100.0
45864;BME280;31579;52.354;16.974;2022-09-01T02:49:28;416.8;;;-146.1;100.0
45864;BME280;31579;52.354;16.974;2022-09-01T02:50:32;417.2;;;-146.1;100.0
45864;BME280;31579;52.354;16.974;2022-09-01T02:51:22;423.0;;;-146.1;100.0
45864;BME280;31579;52.354;16.974;2022-09-01T02:52:25;418.8;;;-146.1;100.0
45864;BME280;31579;52.354;16.974;2022-09-01T02:53:28;435.8;;;-146.1;100.0
45864;BME280;31579;52.354;16.974;2022-09-01T02:54:32;423.4;;;-146.1;100.0
45864;BME280;31579;52.354;16.974;2022-09-01T02:55:35;437.9;;;-146.1;100.0
45864;BME280;31579;52.354;16.974;2022-09-01T02:56:39;425.9;;;-146.1;100.0
45864;BME280;31579;52.354;16.974;2022-09-01T02:57:43;424.4;;;-146.1;100.0
45864;BME280;31579;52.354;16.974;2022-09-01T02:58:47;423.9;;;-146.1;100.0
45864;BME280;31579;52.354;16.974;2022-09-01T02:59:51;423.8;;;-146.1;100.0
45864;BME280;31579;52.354;16.974;2022-09-01T03:00:55;423.8;;;-146.1;100.0
45864;BME280;31579;52.354;16.974;2022-09-01T03:01:59;423.5;;;-146.1;100.0
45864;BME280;31579;52.354;16.974;2022-09-01T03:03:04;423.9;;;-146.1;100.0
45864;BME280;31579;52.354;16.974;2022-09-01T03:04:08;424.3;;;-146.1;100.0
45864;BME280;31579;52.354;16.974;2022-09-01T03:05:12;425.4;;;-146.1;100.0
45864;BME280;31579;52.354;16.974;2022-09-01T03:06:17;424.0;;;-146.1;100.0
45864;BME280;31579;52.354;16.974;2022-09-01T03:07:19;442.0;;;-146.1;100.0
45864;BME280;31579;52.354;16.974;2022-09-01T03:08:24;431.4;;;-146.1;100.0
45864;BME280;31579;52.354;16.974;2022-09-01T03:09:28;429.6;;;-146.1;100.0
45864;BME280;31579;52.354;16.974;2022-09-01T03:10:33;430.1;;;-146.1;100.0
45864;BME280;31579;52.354;16.974;2022-09-01T03:11:38;430.5;;;-146.1;100.0
45864;BME280;31579;52.354;16.974;2022-09-01T03:12:41;431.0;;;-146.1;100.0
45864;BME280;31579;52.354;16.974;2022-09-01T03:13:45;431.3;;;-146.1;100.0
45864;BME280;31579;52.354;16.974;2022-09-01T03:14:49;432.6;;;-146.1;100.0
45864;BME280;31579;52.354;16.974;2022-09-01T03:15:53;433.0;;;-146.1;100.0
45864;BME280;31579;52.354;16.974;2022-09-01T03:16:57;433.1;;;-146.1;100.0
45864;BME280;31579;52.354;16.974;2022-09-01T03:18:01;432.4;;;-146.1;100.0
45864;BME280;31579;52.354;16.974;2022-09-01T03:19:05;439.8;;;-146.1;100.0
45864;BME280;31579;52.354;16.974;2022-09-01T03:20:08;432.7;;;-146.1;100.0
45864;BME280;31579;52.354;16.974;2022-09-01T03:21:12;431.1;;;-146.1;100.0
45864;BME280;31579;52.354;16.974;2022-09-01T03:22:16;429.8;;;-146.1;100.0
45864;BME280;31579;52.354;16.974;2022-09-01T03:23:19;436.8;;;-146.1;100.0
45864;BME280;31579;52.354;16.974;2022-09-01T03:24:24;429.1;;;-146.1;100.0
45864;BME280;31579;52.354;16.974;2022-09-01T03:25:28;427.4;;;-146.1;100.0
45864;BME280;31579;52.354;16.974;2022-09-01T03:26:32;426.9;;;-146.1;100.0
45864;BME280;31579;52.354;16.974;2022-09-01T03:27:36;427.2;;;-146.1;100.0
45864;BME280;31579;52.354;16.974;2022-09-01T03:28:40;427.7;;;-146.1;100.0
45864;BME280;31579;52.354;16.974;2022-09-01T03:29:44;427.8;;;-146.1;100.0
45864;BME280;31579;52.354;16.974;2022-09-01T03:30:49;428.2;;;-146.1;100.0
45864;BME280;31579;52.354;16.974;2022-09-01T03:31:52;428.2;;;-146.1;100.0
45864;BME280;31579;52.354;16.974;2022-09-01T03:32:56;428.2;;;-146.1;100.0
45864;BME280;31579;52.354;16.974;2022-09-01T03:34:00;428.8;;;-146.1;100.0
45864;BME280;31579;52.354;16.974;2022-09-01T03:35:04;429.5;;;-146.1;100.0
45864;BME280;31579;52.354;16.974;2022-09-01T03:36:08;430.4;;;-146.1;100.0
45864;BME280;31579;52.354;16.974;2022-09-01T03:37:12;431.8;;;-146.1;100.0
45864;BME280;31579;52.354;16.974;2022-09-01T03:38:17;421.1;;;-146.1;100.0
45864;BME280;31579;52.354;16.974;2022-09-01T03:39:21;431.4;;;-146.1;100.0
45864;BME280;31579;52.354;16.974;2022-09-01T03:40:27;433.0;;;-146.1;100.0
45864;BME280;31579;52.354;16.974;2022-09-01T03:41:29;433.9;;;-146.1;100.0
45864;BME280;31579;52.354;16.974;2022-09-01T03:42:33;433.9;;;-146.1;100.0
45864;BME280;31579;52.354;16.974;2022-09-01T03:43:37;434.0;;;-146.1;100.0
45864;BME280;31579;52.354;16.974;2022-09-01T03:44:41;434.0;;;-146.1;100.0
45864;BME280;31579;52.354;16.974;2022-09-01T03:45:45;433.7;;;-146.1;100.0
45864;BME280;31579;52.354;16.974;2022-09-01T03:46:49;434.3;;;-146.1;100.0
45864;BME280;31579;52.354;16.974;2022-09-01T03:47:53;434.6;;;-146.1;100.0
45864;BME280;31579;52.354;16.974;2022-09-01T03:48:57;434.2;;;-146.1;100.0
45864;BME280;31579;52.354;16.974;2022-09-01T03:50:01;434.1;;;-146.1;100.0
45864;BME280;31579;52.354;16.974;2022-09-01T03:51:04;442.8;;;-146.1;100.0
45864;BME280;31579;52.354;16.974;2022-09-01T03:52:08;439.3;;;-146.1;100.0
45864;BME280;31579;52.354;16.974;2022-09-01T03:53:13;439.8;;;-146.1;100.0
45864;BME280;31579;52.354;16.974;2022-09-01T03:54:17;431.4;;;-146.1;100.0
45864;BME280;31579;52.354;16.974;2022-09-01T03:55:22;440.9;;;-146.1;100.0
45864;BME280;31579;52.354;16.974;2022-09-01T03:56:26;443.3;;;-146.1;100.0
45864;BME280;31579;52.354;16.974;2022-09-01T03:57:30;444.4;;;-146.1;100.0
45864;BME280;31579;52.354;16.974;2022-09-01T03:58:34;444.9;;;-146.1;100.0
45864;BME280;31579;52.354;16.974;2022-09-01T03:59:38;445.9;;;-146.1;100.0
45864;BME280;31579;52.354;16.974;2022-09-01T04:00:42;446.6;;;-146.1;100.0
45864;BME280;31579;52.354;16.974;2022-09-01T04:01:46;446.5;;;-146.1;100.0
45864;BME280;31579;52.354;16.974;2022-09-01T04:02:50;446.7;;;-146.1;100.0
45864;BME280;31579;52.354;16.974;2022-09-01T04:03:54;447.0;;;-146.1;100.0
45864;BME280;31579;52.354;16.974;2022-09-01T04:04:58;447.0;;;-146.1;100.0
45864;BME280;31579;52.354;16.974;2022-09-01T04:06:02;447.2;;;-146.1;100.0
45864;BME280;31579;52.354;16.974;2022-09-01T04:07:06;447.9;;;-146.1;100.0
45864;BME280;31579;52.354;16.974;2022-09-01T04:08:10;448.1;;;-146.1;100.0
45864;BME280;31579;52.354;16.974;2022-09-01T04:09:14;447.9;;;-146.1;100.0
45864;BME280;31579;52.354;16.974;2022-09-01T04:10:16;459.8;;;-146.1;100.0
45864;BME280;31579;52.354;16.974;2022-09-01T04:11:30;455.1;;;-146.1;100.0
45864;BME280;31579;52.354;16.974;2022-09-01T04:12:35;451.2;;;-146.1;100.0
45864;BME280;31579;52.354;16.974;2022-09-01T04:13:39;450.6;;;-146.1;100.0
45864;BME280;31579;52.354;16.974;2022-09-01T04:14:43;450.2;;;-146.1;100.0
45864;BME280;31579;52.354;16.974;2022-09-01T04:15:47;450.3;;;-146.1;100.0
45864;BME280;31579;52.354;16.974;2022-09-01T04:16:51;450.3;;;-146.1;100.0
45864;BME280;31579;52.354;16.974;2022-09-01T04:17:55;450.3;;;-146.1;100.0
45864;BME280;31579;52.354;16.974;2022-09-01T04:18:59;450.0;;;-146.1;100.0
45864;BME280;31579;52.354;16.974;2022-09-01T04:20:03;450.3;;;-146.1;100.0
45864;BME280;31579;52.354;16.974;2022-09-01T04:21:07;450.3;;;-146.1;100.0
45864;BME280;31579;52.354;16.974;2022-09-01T04:22:11;450.6;;;-146.1;100.0
45864;BME280;31579;52.354;16.974;2022-09-01T04:23:18;450.8;;;-146.1;100.0
45864;BME280;31579;52.354;16.974;2022-09-01T04:24:19;451.3;;;-146.1;100.0
45864;BME280;31579;52.354;16.974;2022-09-01T04:25:23;451.3;;;-146.1;100.0
45864;BME280;31579;52.354;16.974;2022-09-01T04:26:27;452.1;;;-146.1;100.0
45864;BME280;31579;52.354;16.974;2022-09-01T04:27:31;452.5;;;-146.1;100.0
45864;BME280;31579;52.354;16.974;2022-09-01T04:28:37;453.0;;;-146.1;100.0
45864;BME280;31579;52.354;16.974;2022-09-01T04:29:39;453.4;;;-146.1;100.0
45864;BME280;31579;52.354;16.974;2022-09-01T04:30:43;453.3;;;-146.1;100.0
45864;BME280;31579;52.354;16.974;2022-09-01T04:31:48;453.4;;;-146.1;100.0
45864;BME280;31579;52.354;16.974;2022-09-01T04:32:52;453.5;;;-146.1;100.0
45864;BME280;31579;52.354;16.974;2022-09-01T04:33:56;453.4;;;-146.1;100.0
45864;BME280;31579;52.354;16.974;2022-09-01T04:35:00;454.4;;;-146.1;100.0
45864;BME280;31579;52.354;16.974;2022-09-01T04:36:04;460.7;;;-146.1;100.0
45864;BME280;31579;52.354;16.974;2022-09-01T04:37:13;456.1;;;-146.1;100.0
45864;BME280;31579;52.354;16.974;2022-09-01T04:38:11;455.2;;;-146.1;100.0
45864;BME280;31579;52.354;16.974;2022-09-01T04:39:15;454.6;;;-146.1;100.0
45864;BME280;31579;52.354;16.974;2022-09-01T04:40:27;435.1;;;-146.1;100.0
45864;BME280;31579;52.354;16.974;2022-09-01T04:41:31;448.4;;;-146.1;100.0
45864;BME280;31579;52.354;16.974;2022-09-01T04:42:35;450.7;;;-146.1;100.0
45864;BME280;31579;52.354;16.974;2022-09-01T04:43:39;451.7;;;-146.1;100.0
45864;BME280;31579;52.354;16.974;2022-09-01T04:44:43;452.1;;;-146.1;100.0
45864;BME280;31579;52.354;16.974;2022-09-01T04:45:47;452.8;;;-146.1;100.0
45864;BME280;31579;52.354;16.974;2022-09-01T04:46:51;452.8;;;-146.1;100.0
45864;BME280;31579;52.354;16.974;2022-09-01T04:48:09;449.5;;;-146.1;100.0
45864;BME280;31579;52.354;16.974;2022-09-01T04:49:15;450.9;;;-146.1;100.0
45864;BME280;31579;52.354;16.974;2022-09-01T04:50:18;452.1;;;-146.1;100.0
45864;BME280;31579;52.354;16.974;2022-09-01T04:51:23;452.6;;;-146.1;100.0
45864;BME280;31579;52.354;16.974;2022-09-01T04:52:26;454.2;;;-146.1;100.0
45864;BME280;31579;52.354;16.974;2022-09-01T04:53:31;454.7;;;-146.1;100.0
45864;BME280;31579;52.354;16.974;2022-09-01T04:54:36;456.0;;;-146.1;100.0
45864;BME280;31579;52.354;16.974;2022-09-01T04:55:39;456.7;;;-146.1;100.0
45864;BME280;31579;52.354;16.974;2022-09-01T04:56:44;457.4;;;-146.1;100.0
45864;BME280;31579;52.354;16.974;2022-09-01T04:57:48;457.6;;;-146.1;100.0
45864;BME280;31579;52.354;16.974;2022-09-01T04:58:52;458.3;;;-146.1;100.0
45864;BME280;31579;52.354;16.974;2022-09-01T04:59:55;458.8;;;-146.1;100.0
45864;BME280;31579;52.354;16.974;2022-09-01T05:00:59;459.4;;;-146.1;100.0
45864;BME280;31579;52.354;16.974;2022-09-01T05:02:03;460.0;;;-146.1;100.0
45864;BME280;31579;52.354;16.974;2022-09-01T05:03:07;461.1;;;-146.1;100.0
45864;BME280;31579;52.354;16.974;2022-09-01T05:04:12;462.8;;;-146.1;100.0
45864;BME280;31579;52.354;16.974;2022-09-01T05:05:15;463.1;;;-146.1;100.0
45864;BME280;31579;52.354;16.974;2022-09-01T05:06:19;463.3;;;-146.1;100.0
45864;BME280;31579;52.354;16.974;2022-09-01T05:07:23;459.9;;;-146.1;100.0
45864;BME280;31579;52.354;16.974;2022-09-01T05:08:27;455.3;;;-146.1;100.0
45864;BME280;31579;52.354;16.974;2022-09-01T05:09:32;454.4;;;-146.1;100.0
45864;BME280;31579;52.354;16.974;2022-09-01T05:10:37;449.1;;;-146.1;100.0
45864;BME280;31579;52.354;16.974;2022-09-01T05:11:39;444.8;;;-146.1;100.0
45864;BME280;31579;52.354;16.974;2022-09-01T05:12:43;442.2;;;-146.1;100.0
45864;BME280;31579;52.354;16.974;2022-09-01T05:13:47;437.2;;;-146.1;100.0
45864;BME280;31579;52.354;16.974;2022-09-01T05:14:51;430.7;;;-146.1;100.0
45864;BME280;31579;52.354;16.974;2022-09-01T05:17:05;414.5;;;-146.1;100.0
45864;BME280;31579;52.354;16.974;2022-09-01T05:18:15;413.1;;;-146.1;100.0
45864;BME280;31579;52.354;16.974;2022-09-01T05:19:17;411.3;;;-146.1;100.0
45864;BME280;31579;52.354;16.974;2022-09-01T05:20:18;406.7;;;-146.1;100.0
45864;BME280;31579;52.354;16.974;2022-09-01T05:21:23;403.2;;;-146.1;100.0
45864;BME280;31579;52.354;16.974;2022-09-01T05:22:26;387.9;;;-146.1;100.0
45864;BME280;31579;52.354;16.974;2022-09-01T05:23:30;372.6;;;-146.1;100.0
45864;BME280;31579;52.354;16.974;2022-09-01T05:24:35;364.9;;;-146.1;100.0
45864;BME280;31579;52.354;16.974;2022-09-01T05:25:39;367.1;;;-146.1;100.0
45864;BME280;31579;52.354;16.974;2022-09-01T05:26:42;357.5;;;-146.1;100.0
45864;BME280;31579;52.354;16.974;2022-09-01T05:27:46;340.1;;;-146.1;100.0
45864;BME280;31579;52.354;16.974;2022-09-01T05:28:52;323.1;;;-146.1;100.0
45864;BME280;31579;52.354;16.974;2022-09-01T05:29:54;302.0;;;-146.1;100.0
45864;BME280;31579;52.354;16.974;2022-09-01T05:30:59;295.3;;;-146.1;100.0
45864;BME280;31579;52.354;16.974;2022-09-01T05:32:00;282.4;;;-146.1;100.0
45864;BME280;31579;52.354;16.974;2022-09-01T05:33:03;273.0;;;-146.1;100.0
45864;BME280;31579;52.354;16.974;2022-09-01T05:34:08;229.9;;;-146.1;100.0
45864;BME280;31579;52.354;16.974;2022-09-01T05:35:11;246.6;;;-146.1;100.0
45864;BME280;31579;52.354;16.974;2022-09-01T05:36:16;226.3;;;-146.1;100.0
45864;BME280;31579;52.354;16.974;2022-09-01T05:37:19;221.4;;;-146.1;100.0
45864;BME280;31579;52.354;16.974;2022-09-01T05:38:23;181.8;;;-146.1;100.0
45864;BME280;31579;52.354;16.974;2022-09-01T05:39:27;126.6;;;-146.1;100.0
45864;BME280;31579;52.354;16.974;2022-09-01T05:40:31;120.1;;;-146.1;100.0
45864;BME280;31579;52.354;16.974;2022-09-01T05:41:35;153.6;;;-146.1;100.0
45864;BME280;31579;52.354;16.974;2022-09-01T05:42:14;171.8;;;-146.1;100.0
45864;BME280;31579;52.354;16.974;2022-09-01T05:43:18;79.3;;;-146.1;100.0
45864;BME280;31579;52.354;16.974;2022-09-01T05:44:22;55.4;;;-146.1;100.0
45864;BME280;31579;52.354;16.974;2022-09-01T05:45:26;64.8;;;-146.1;100.0
45864;BME280;31579;52.354;16.974;2022-09-01T05:46:30;74.4;;;-146.1;100.0
45864;BME280;31579;52.354;16.974;2022-09-01T05:47:34;59.9;;;-146.1;100.0
45864;BME280;31579;52.354;16.974;2022-09-01T05:48:38;39.8;;;-146.1;100.0
45864;BME280;31579;52.354;16.974;2022-09-01T05:49:42;36.9;;;-146.1;100.0
45864;BME280;31579;52.354;16.974;2022-09-01T05:50:46;21.9;;;-146.1;100.0
45864;BME280;31579;52.354;16.974;2022-09-01T05:51:50;14.8;;;-146.1;100.0
45864;BME280;31579;52.354;16.974;2022-09-01T05:52:54;21.9;;;-146.1;100.0